createdAt,value
2022-12-08T00:01:49.053Z,21.93
2022-12-08T00:05:09.474Z,21.10
2022-12-08T00:08:29.778Z,23.27
2022-12-08T00:11:31.356Z,22.02
2022-12-08T00:14:40.474Z,21.57
2022-12-08T00:17:42.047Z,22.33
2022-12-08T00:20:46.299Z,22.58
2022-12-08T00:23:47.866Z,20.02
2022-12-08T00:26:49.504Z,21.35
2022-12-08T00:29:51.075Z,21.50
2022-12-08T00:32:52.700Z,19.77
2022-12-08T00:35:54.392Z,22.60
2022-12-08T00:38:59.656Z,22.10
2022-12-08T00:42:13.106Z,19.20
2022-12-08T00:45:14.885Z,20.35
2022-12-08T00:48:16.465Z,24.00
2022-12-08T00:51:18.037Z,21.33
2022-12-08T00:54:19.677Z,21.73
2022-12-08T00:57:21.258Z,21.52
2022-12-08T01:00:22.811Z,20.45
2022-12-08T01:03:28.526Z,23.67
2022-12-08T01:06:30.149Z,21.08
2022-12-08T01:09:31.789Z,20.30
2022-12-08T01:12:33.381Z,19.63
2022-12-08T01:15:34.983Z,21.13
2022-12-08T01:18:37.048Z,21.20
2022-12-08T01:21:41.738Z,18.50
2022-12-08T01:24:43.332Z,19.40
2022-12-08T01:27:44.890Z,20.55
2022-12-08T01:30:46.540Z,19.60
2022-12-08T01:33:48.724Z,20.13
2022-12-08T01:36:50.315Z,21.08
2022-12-08T01:39:51.941Z,18.15
2022-12-08T01:42:53.523Z,20.42
2022-12-08T01:45:55.194Z,19.77
2022-12-08T01:49:04.777Z,19.13
2022-12-08T01:52:23.696Z,22.23
2022-12-08T01:55:29.073Z,20.00
2022-12-08T01:58:32.835Z,19.13
2022-12-08T02:01:34.443Z,19.40
2022-12-08T02:04:40.079Z,22.47
2022-12-08T02:07:41.654Z,20.50
2022-12-08T02:10:43.613Z,22.17
2022-12-08T02:13:45.396Z,17.48
2022-12-08T02:17:03.587Z,20.75
2022-12-08T02:20:13.238Z,21.42
2022-12-08T02:23:17.569Z,21.98
2022-12-08T02:26:31.121Z,24.60
2022-12-08T02:29:47.724Z,21.05
2022-12-08T02:33:01.383Z,21.88
2022-12-08T02:36:20.150Z,21.92
2022-12-08T02:39:21.739Z,24.67
2022-12-08T02:42:28.093Z,21.83
2022-12-08T02:45:43.707Z,24.73
2022-12-08T02:48:45.372Z,23.33
2022-12-08T02:51:46.926Z,24.42
2022-12-08T02:54:56.089Z,25.48
2022-12-08T02:58:18.857Z,23.95
2022-12-08T03:01:35.792Z,23.30
2022-12-08T03:04:58.922Z,23.20
2022-12-08T03:08:12.971Z,25.38
2022-12-08T03:11:33.206Z,23.40
2022-12-08T03:14:34.898Z,26.07
2022-12-08T03:17:36.527Z,26.67
2022-12-08T03:20:38.113Z,27.50
2022-12-08T03:23:39.794Z,26.42
2022-12-08T03:26:52.312Z,25.27
2022-12-08T03:29:55.324Z,25.40
2022-12-08T03:33:22.618Z,27.33
2022-12-08T03:36:24.181Z,22.45
2022-12-08T03:39:25.913Z,21.47
2022-12-08T03:42:27.466Z,23.67
2022-12-08T03:45:29.160Z,28.58
2022-12-08T03:48:30.823Z,28.13
2022-12-08T03:51:35.520Z,27.98
2022-12-08T03:54:37.105Z,26.48
2022-12-08T03:57:38.701Z,26.52
2022-12-08T04:00:40.278Z,30.93
2022-12-08T04:03:41.885Z,28.45
2022-12-08T04:06:43.532Z,30.83
2022-12-08T04:09:48.787Z,31.73
2022-12-08T04:12:50.423Z,30.00
2022-12-08T04:15:52.365Z,29.67
2022-12-08T04:18:54.296Z,29.30
2022-12-08T04:22:00.051Z,28.48
2022-12-08T04:25:01.834Z,29.20
2022-12-08T04:28:03.846Z,29.90
2022-12-08T04:31:05.704Z,31.73
2022-12-08T04:34:07.355Z,35.77
2022-12-08T04:37:08.909Z,34.95
2022-12-08T04:40:11.959Z,31.38
2022-12-08T04:43:13.665Z,32.08
2022-12-08T04:46:15.317Z,33.93
2022-12-08T04:49:16.936Z,34.05
2022-12-08T04:52:21.856Z,32.13
2022-12-08T04:55:23.435Z,34.25
2022-12-08T04:58:29.274Z,38.88
2022-12-08T05:01:30.902Z,43.10
2022-12-08T05:04:32.601Z,34.13
2022-12-08T05:07:34.299Z,36.30
2022-12-08T05:10:38.740Z,36.33
2022-12-08T05:13:40.321Z,37.00
2022-12-08T05:16:42.345Z,40.55
2022-12-08T05:19:43.971Z,35.13
2022-12-08T05:22:49.973Z,36.70
2022-12-08T05:25:51.636Z,40.03
2022-12-08T05:28:53.198Z,38.43
2022-12-08T05:31:54.800Z,38.72
2022-12-08T05:34:56.512Z,38.30
2022-12-08T05:37:58.079Z,35.63
2022-12-08T05:41:04.229Z,37.80
2022-12-08T05:44:05.886Z,36.85
2022-12-08T05:47:07.583Z,37.97
2022-12-08T05:50:09.310Z,38.25
2022-12-08T05:53:13.607Z,36.60
2022-12-08T05:56:15.305Z,41.05
2022-12-08T05:59:16.906Z,35.33
2022-12-08T06:02:18.673Z,37.73
2022-12-08T06:05:20.556Z,35.20
2022-12-08T06:08:22.169Z,32.00
2022-12-08T06:11:28.554Z,33.10
2022-12-08T06:14:30.105Z,32.83
2022-12-08T06:17:31.699Z,30.08
2022-12-08T06:20:33.402Z,27.92
2022-12-08T06:23:35.010Z,30.03
2022-12-08T06:26:36.813Z,29.33
2022-12-08T06:29:38.520Z,25.70
2022-12-08T06:32:40.151Z,25.98
2022-12-08T06:35:41.741Z,25.52
2022-12-08T06:38:44.141Z,26.33
2022-12-08T06:42:04.342Z,27.92
2022-12-08T06:45:06.510Z,25.30
2022-12-08T06:48:08.096Z,24.42
2022-12-08T06:51:10.990Z,26.48
2022-12-08T06:54:17.051Z,24.45
2022-12-08T06:57:18.740Z,23.48
2022-12-08T07:00:20.781Z,25.08
2022-12-08T07:03:22.386Z,22.90
2022-12-08T07:06:24.683Z,23.03
2022-12-08T07:09:30.330Z,24.88
2022-12-08T07:12:32.245Z,22.20
2022-12-08T07:15:33.902Z,27.53
2022-12-08T07:18:35.842Z,21.63
2022-12-08T07:21:37.559Z,21.33
2022-12-08T07:24:39.135Z,21.63
2022-12-08T07:27:40.747Z,20.38
2022-12-08T07:30:42.368Z,22.10
2022-12-08T07:33:44.027Z,24.58
2022-12-08T07:36:45.613Z,24.33
2022-12-08T07:39:47.392Z,23.50
2022-12-08T07:42:49.156Z,24.63
2022-12-08T07:45:51.143Z,24.45
2022-12-08T07:48:55.251Z,21.03
2022-12-08T07:51:56.929Z,23.25
2022-12-08T07:54:58.522Z,21.42
2022-12-08T07:58:00.442Z,23.30
2022-12-08T08:01:02.291Z,19.35
2022-12-08T08:04:05.323Z,21.00
2022-12-08T08:07:06.975Z,23.08
2022-12-08T08:10:09.311Z,24.20
2022-12-08T08:13:10.891Z,22.70
2022-12-08T08:16:13.773Z,21.27
2022-12-08T08:19:15.423Z,21.13
2022-12-08T08:22:17.012Z,22.97
2022-12-08T08:25:19.630Z,25.00
2022-12-08T08:28:21.354Z,22.92
2022-12-08T08:31:27.103Z,24.92
2022-12-08T08:34:28.864Z,23.70
2022-12-08T08:37:30.646Z,24.23
2022-12-08T08:40:32.236Z,19.90
2022-12-08T08:43:38.383Z,23.47
2022-12-08T08:46:40.909Z,24.00
2022-12-08T08:49:42.689Z,20.58
2022-12-08T08:52:44.290Z,22.73
2022-12-08T08:55:45.932Z,22.35
2022-12-08T08:58:48.950Z,21.33
2022-12-08T09:01:50.690Z,21.45
2022-12-08T09:04:52.534Z,22.13
2022-12-08T09:07:54.385Z,21.73
2022-12-08T09:10:56.190Z,22.75
2022-12-08T09:13:57.816Z,17.80
2022-12-08T09:16:59.405Z,23.48
2022-12-08T09:20:01.453Z,23.42
2022-12-08T09:23:03.220Z,23.58
2022-12-08T09:26:05.250Z,21.43
2022-12-08T09:29:06.880Z,22.00
2022-12-08T09:32:08.603Z,20.98
2022-12-08T09:35:10.313Z,22.40
2022-12-08T09:38:11.917Z,20.63
2022-12-08T09:41:43.307Z,18.83
2022-12-08T09:44:55.297Z,22.65
2022-12-08T09:48:12.342Z,21.17
2022-12-08T09:51:14.506Z,23.80
2022-12-08T09:54:21.334Z,21.50
2022-12-08T09:57:22.979Z,24.70
2022-12-08T10:00:28.385Z,21.83
2022-12-08T10:03:30.202Z,21.63
2022-12-08T10:07:06.301Z,24.75
2022-12-08T10:10:27.867Z,24.05
2022-12-08T10:13:35.296Z,20.13
2022-12-08T10:16:40.432Z,22.75
2022-12-08T10:19:42.541Z,20.55
2022-12-08T10:22:45.067Z,20.90
2022-12-08T10:25:48.852Z,20.40
2022-12-08T10:28:50.509Z,21.85
2022-12-08T10:31:52.172Z,21.77
2022-12-08T10:35:03.891Z,21.42
2022-12-08T10:38:06.578Z,20.37
2022-12-08T10:41:11.198Z,22.33
2022-12-08T10:44:13.167Z,20.67
2022-12-08T10:47:14.844Z,19.15
2022-12-08T10:50:33.309Z,21.03
2022-12-08T10:53:35.029Z,19.90
2022-12-08T10:56:36.695Z,23.25
2022-12-08T10:59:41.882Z,20.55
2022-12-08T11:03:19.996Z,20.70
2022-12-08T11:06:25.851Z,17.75
2022-12-08T11:09:36.421Z,20.13
2022-12-08T11:12:37.998Z,18.60
2022-12-08T11:15:39.836Z,20.98
2022-12-08T11:18:43.548Z,19.35
2022-12-08T11:21:45.275Z,21.33
2022-12-08T11:24:46.828Z,21.88
2022-12-08T11:27:53.226Z,18.02
2022-12-08T11:31:06.393Z,17.87
2022-12-08T11:34:10.030Z,19.73
2022-12-08T11:37:37.819Z,18.75
2022-12-08T11:40:40.671Z,18.13
2022-12-08T11:44:05.870Z,20.90
2022-12-08T11:47:25.562Z,19.23
2022-12-08T11:50:50.777Z,18.73
2022-12-08T11:53:52.492Z,19.85
2022-12-08T11:56:57.937Z,17.88
2022-12-08T11:59:59.664Z,17.13
2022-12-08T12:03:06.372Z,17.77
2022-12-08T12:10:19.023Z,18.92
2022-12-08T12:13:26.409Z,20.30
2022-12-08T12:16:42.652Z,17.85
2022-12-08T12:19:44.273Z,19.50
2022-12-08T12:22:48.766Z,18.65
2022-12-08T12:25:56.745Z,16.97
2022-12-08T12:29:13.726Z,19.05
2022-12-08T12:32:15.305Z,18.13
2022-12-08T12:35:26.809Z,18.45
2022-12-08T12:38:57.698Z,16.53
2022-12-08T12:42:03.661Z,18.55
2022-12-08T12:45:19.332Z,19.35
2022-12-08T12:48:23.625Z,17.45
2022-12-08T12:51:47.166Z,18.92
2022-12-08T12:54:51.807Z,19.03
2022-12-08T12:57:55.221Z,18.55
2022-12-08T13:01:12.056Z,17.73
2022-12-08T13:04:13.896Z,18.77
2022-12-08T13:07:31.515Z,17.47
2022-12-08T13:10:34.744Z,18.50
2022-12-08T13:13:37.423Z,18.65
2022-12-08T13:16:39.175Z,18.48
2022-12-08T13:19:41.193Z,17.93
2022-12-08T13:23:27.482Z,18.90
2022-12-08T13:26:29.131Z,16.30
2022-12-08T13:29:31.545Z,16.95
2022-12-08T13:33:17.410Z,18.13
2022-12-08T13:36:21.547Z,15.88
2022-12-08T13:39:26.766Z,17.13
2022-12-08T13:42:43.186Z,18.55
2022-12-08T13:50:49.587Z,18.27
2022-12-08T13:59:34.517Z,18.13
2022-12-08T14:02:57.192Z,19.73
2022-12-08T14:06:14.601Z,18.85
2022-12-08T14:09:21.855Z,19.75
2022-12-08T14:12:29.932Z,21.70
2022-12-08T14:15:38.268Z,22.77
2022-12-08T14:18:40.190Z,21.25
2022-12-08T14:21:42.007Z,20.08
2022-12-08T14:25:01.994Z,19.73
2022-12-08T14:28:04.188Z,18.63
2022-12-08T14:31:06.398Z,17.65
2022-12-08T14:34:10.872Z,18.50
2022-12-08T14:37:12.621Z,19.60
2022-12-08T14:40:25.542Z,19.20
2022-12-08T14:43:28.342Z,18.55
2022-12-08T14:46:30.146Z,19.20
2022-12-08T14:49:38.866Z,19.67
2022-12-08T14:52:43.465Z,18.27
2022-12-08T14:55:46.503Z,17.50
2022-12-08T14:58:49.623Z,18.92
2022-12-08T15:01:52.630Z,18.67
2022-12-08T15:05:14.839Z,16.98
2022-12-08T15:08:16.759Z,18.42
2022-12-08T15:11:21.641Z,19.90
2022-12-08T15:14:32.051Z,18.48
2022-12-08T15:17:38.085Z,19.95
2022-12-08T15:20:48.515Z,20.25
2022-12-08T15:23:50.369Z,19.30
2022-12-08T15:26:52.115Z,23.57
2022-12-08T15:29:53.783Z,19.40
2022-12-08T15:32:59.359Z,20.02
2022-12-08T15:36:00.921Z,24.25
2022-12-08T15:39:02.536Z,21.97
2022-12-08T15:42:05.943Z,23.35
2022-12-08T15:45:09.059Z,22.45
2022-12-08T15:48:21.550Z,25.02
2022-12-08T15:51:23.156Z,25.60
2022-12-08T15:54:24.758Z,21.85
2022-12-08T15:58:04.537Z,24.05
2022-12-08T16:00:52.933Z,23.13
2022-12-08T16:07:25.811Z,21.45
2022-12-08T16:10:35.664Z,19.92
2022-12-08T16:14:00.118Z,20.80
2022-12-08T16:17:16.336Z,23.43
2022-12-08T16:20:28.198Z,22.58
2022-12-08T16:23:44.139Z,22.08
2022-12-08T16:27:58.656Z,21.48
2022-12-08T16:30:14.001Z,22.50
2022-12-08T16:33:15.623Z,26.58
2022-12-08T16:36:17.294Z,21.23
2022-12-08T16:39:18.999Z,23.48
2022-12-08T16:42:43.693Z,25.60
2022-12-08T16:45:45.454Z,24.90
2022-12-08T16:48:47.129Z,25.83
2022-12-08T16:51:48.787Z,25.60
2022-12-08T16:54:50.476Z,23.93
2022-12-08T16:57:52.193Z,25.42
2022-12-08T17:00:53.823Z,26.48
2022-12-08T17:04:29.254Z,26.00
2022-12-08T17:07:17.104Z,23.53
2022-12-08T17:10:22.963Z,25.88
2022-12-08T17:13:24.564Z,28.63
2022-12-08T17:16:27.085Z,29.73
2022-12-08T17:19:31.517Z,29.37
2022-12-08T17:22:33.530Z,27.20
2022-12-08T17:25:35.182Z,29.23
2022-12-08T17:28:59.382Z,27.73
2022-12-08T17:31:58.756Z,28.93
2022-12-08T17:35:03.884Z,31.55
2022-12-08T17:38:05.645Z,31.98
2022-12-08T17:41:08.081Z,26.92
2022-12-08T17:44:13.534Z,25.43
2022-12-08T17:47:15.182Z,28.70
2022-12-08T17:50:20.311Z,30.35
2022-12-08T17:53:21.985Z,29.60
2022-12-08T17:56:23.625Z,25.88
2022-12-08T17:59:26.117Z,29.27
2022-12-08T18:02:28.946Z,29.75
2022-12-08T18:05:31.089Z,27.47
2022-12-08T18:08:32.774Z,26.08
2022-12-08T18:11:34.841Z,29.63
2022-12-08T18:14:36.430Z,32.20
2022-12-08T18:17:38.037Z,33.20
2022-12-08T18:20:43.955Z,30.88
2022-12-08T18:23:45.758Z,31.17
2022-12-08T18:26:47.391Z,33.25
2022-12-08T18:29:48.965Z,35.93
2022-12-08T18:32:55.762Z,34.28
2022-12-08T18:36:01.581Z,35.78
2022-12-08T18:39:07.327Z,35.53
2022-12-08T18:42:24.147Z,35.23
2022-12-08T18:45:25.729Z,34.78
2022-12-08T18:48:27.364Z,33.13
2022-12-08T18:51:32.775Z,32.45
2022-12-08T18:54:58.123Z,35.03
2022-12-08T18:57:55.944Z,31.17
2022-12-08T19:00:57.623Z,30.70
2022-12-08T19:07:21.828Z,33.28
2022-12-08T19:10:23.468Z,31.50
2022-12-08T19:13:25.075Z,32.28
2022-12-08T19:16:26.714Z,36.42
2022-12-08T19:19:28.461Z,32.65
2022-12-08T19:22:30.122Z,31.45
2022-12-08T19:25:31.785Z,30.80
2022-12-08T19:28:33.612Z,30.13
2022-12-08T19:31:35.352Z,31.20
2022-12-08T19:34:37.034Z,31.27
2022-12-08T19:37:42.887Z,27.80
2022-12-08T19:41:03.062Z,29.23
2022-12-08T19:44:04.680Z,30.25
2022-12-08T19:47:06.469Z,30.00
2022-12-08T19:50:27.798Z,29.60
2022-12-08T19:53:29.466Z,28.50
2022-12-08T19:56:31.106Z,27.75
2022-12-08T19:59:32.726Z,30.45
2022-12-08T20:02:34.401Z,26.00
2022-12-08T20:05:36.234Z,29.92
2022-12-08T20:08:50.553Z,28.25
2022-12-08T20:11:54.738Z,31.08
2022-12-08T20:14:56.396Z,28.87
2022-12-08T20:17:58.020Z,29.85
2022-12-08T20:20:59.610Z,31.77
2022-12-08T20:24:04.713Z,28.75
2022-12-08T20:27:06.363Z,28.50
2022-12-08T20:30:13.320Z,29.20
2022-12-08T20:33:18.486Z,29.63
2022-12-08T20:36:20.758Z,29.23
2022-12-08T20:39:26.810Z,29.63
2022-12-08T20:42:28.475Z,28.52
2022-12-08T20:45:30.154Z,28.10
2022-12-08T20:48:31.870Z,30.13
2022-12-08T20:51:33.608Z,32.50
2022-12-08T20:54:35.443Z,29.80
2022-12-08T20:57:37.120Z,30.55
2022-12-08T21:00:38.746Z,34.00
2022-12-08T21:03:40.489Z,31.15
2022-12-08T21:06:42.244Z,29.42
2022-12-08T21:09:44.152Z,29.98
2022-12-08T21:12:45.812Z,32.73
2022-12-08T21:15:47.704Z,31.50
2022-12-08T21:18:49.480Z,30.50
2022-12-08T21:21:51.247Z,29.73
2022-12-08T21:24:52.955Z,33.27
2022-12-08T21:27:54.664Z,31.02
2022-12-08T21:30:56.458Z,33.25
2022-12-08T21:33:59.147Z,31.65
2022-12-08T21:37:01.314Z,32.55
2022-12-08T21:40:03.175Z,30.38
2022-12-08T21:43:05.125Z,30.98
2022-12-08T21:46:06.721Z,32.00
2022-12-08T21:49:08.350Z,30.35
2022-12-08T21:52:10.414Z,33.25
2022-12-08T21:55:12.594Z,32.80
2022-12-08T21:58:14.723Z,31.07
2022-12-08T22:01:16.536Z,30.40
2022-12-08T22:04:18.986Z,29.90
2022-12-08T22:07:21.001Z,33.75
2022-12-08T22:10:23.470Z,29.08
2022-12-08T22:13:25.236Z,30.38
2022-12-08T22:16:26.984Z,29.92
2022-12-08T22:19:30.663Z,29.07
2022-12-08T22:22:34.022Z,27.95
2022-12-08T22:25:36.873Z,31.02
2022-12-08T22:28:39.903Z,31.88
2022-12-08T22:31:41.715Z,32.83
2022-12-08T22:34:43.737Z,31.50
2022-12-08T22:37:48.479Z,31.23
2022-12-08T22:40:50.415Z,30.77
2022-12-08T22:43:52.321Z,35.20
2022-12-08T22:46:54.125Z,28.27
2022-12-08T22:49:55.890Z,30.60
2022-12-08T22:52:57.494Z,29.80
2022-12-08T22:56:02.701Z,34.22
2022-12-08T22:59:04.585Z,36.55
2022-12-08T23:02:06.917Z,32.38
2022-12-08T23:05:09.055Z,33.27
2022-12-08T23:08:13.364Z,34.15
2022-12-08T23:11:18.540Z,31.83
2022-12-08T23:14:20.260Z,35.05
2022-12-08T23:17:22.101Z,31.17
2022-12-08T23:20:23.772Z,32.78
2022-12-08T23:23:25.386Z,35.50
2022-12-08T23:26:28.456Z,36.53
2022-12-08T23:29:30.157Z,33.22
2022-12-08T23:32:31.829Z,34.90
2022-12-08T23:35:33.652Z,34.47
2022-12-08T23:38:35.343Z,35.90
2022-12-08T23:41:41.407Z,38.20
2022-12-08T23:44:43.040Z,35.20
2022-12-08T23:47:44.667Z,36.57
2022-12-08T23:50:46.265Z,36.88
2022-12-08T23:53:47.872Z,38.42
2022-12-08T23:56:52.632Z,40.17
2022-12-08T23:59:54.458Z,34.73
